createdAt,value
2023-04-19T00:02:13.517Z,100671.63
2023-04-19T00:04:45.062Z,100678.78
2023-04-19T00:07:14.865Z,100688.06
2023-04-19T00:09:44.514Z,100692.78
2023-04-19T00:12:16.868Z,100679.50
2023-04-19T00:14:46.734Z,100681.59
2023-04-19T00:17:16.411Z,100691.81
2023-04-19T00:19:46.113Z,100689.84
2023-04-19T00:22:15.817Z,100692.00
2023-04-19T00:24:45.869Z,100688.44
2023-04-19T00:27:18.139Z,100680.50
2023-04-19T00:29:47.918Z,100679.47
2023-04-19T00:32:18.250Z,100684.94
2023-04-19T00:34:48.036Z,100680.75
2023-04-19T00:37:17.757Z,100694.13
2023-04-19T00:39:47.561Z,100676.53
2023-04-19T00:42:19.861Z,100674.44
2023-04-19T00:44:50.172Z,100671.88
2023-04-19T00:47:20.298Z,100675.41
2023-04-19T00:49:50.073Z,100677.28
2023-04-19T00:52:19.798Z,100675.22
2023-04-19T00:54:49.499Z,100678.53
2023-04-19T00:57:22.839Z,100684.88
2023-04-19T00:59:54.113Z,100687.94
2023-04-19T01:02:24.148Z,100686.09
2023-04-19T01:04:54.030Z,100687.56
2023-04-19T01:07:23.750Z,100690.69
2023-04-19T01:09:54.116Z,100693.25
2023-04-19T01:12:27.370Z,100682.81
2023-04-19T01:14:57.031Z,100688.25
2023-04-19T01:17:27.303Z,100686.88
2023-04-19T01:20:02.302Z,100686.41
2023-04-19T01:22:37.808Z,100694.00
2023-04-19T01:25:09.802Z,100687.28
2023-04-19T01:27:39.669Z,100683.47
2023-04-19T01:30:10.983Z,100685.00
2023-04-19T01:32:40.787Z,100681.72
2023-04-19T01:35:11.527Z,100679.56
2023-04-19T01:37:43.802Z,100680.72
2023-04-19T01:40:14.718Z,100686.22
2023-04-19T01:42:44.394Z,100677.53
2023-04-19T01:45:14.212Z,100686.53
2023-04-19T01:47:43.985Z,100678.06
2023-04-19T01:50:14.090Z,100680.13
2023-04-19T01:52:47.747Z,100687.84
2023-04-19T01:55:17.465Z,100678.75
2023-04-19T01:57:47.247Z,100677.75
2023-04-19T02:00:18.253Z,100674.16
2023-04-19T02:02:50.445Z,100675.28
2023-04-19T02:05:20.558Z,100676.25
2023-04-19T02:07:53.156Z,100675.06
2023-04-19T02:10:24.124Z,100669.69
2023-04-19T02:12:53.814Z,100670.94
2023-04-19T02:15:23.638Z,100673.03
2023-04-19T02:17:53.354Z,100674.63
2023-04-19T02:20:24.157Z,100672.09
2023-04-19T02:22:56.661Z,100675.88
2023-04-19T02:25:26.366Z,100664.09
2023-04-19T02:27:56.538Z,100669.72
2023-04-19T02:30:26.304Z,100671.56
2023-04-19T02:32:56.135Z,100673.06
2023-04-19T02:35:25.842Z,100673.13
2023-04-19T02:37:58.615Z,100672.69
2023-04-19T02:40:29.385Z,100680.41
2023-04-19T02:43:01.836Z,100674.72
2023-04-19T02:45:31.689Z,100673.91
2023-04-19T02:48:01.601Z,100676.31
2023-04-19T02:50:31.358Z,100674.50
2023-04-19T02:53:03.607Z,100665.75
2023-04-19T02:55:34.587Z,100666.84
2023-04-19T02:58:09.785Z,100673.94
2023-04-19T03:00:45.710Z,100669.16
2023-04-19T03:03:18.888Z,100663.38
2023-04-19T03:05:48.649Z,100661.78
2023-04-19T03:08:20.891Z,100665.25
2023-04-19T03:10:50.632Z,100664.75
2023-04-19T03:13:20.343Z,100656.34
2023-04-19T03:15:50.888Z,100661.47
2023-04-19T03:18:24.826Z,100660.41
2023-04-19T03:20:56.259Z,100655.72
2023-04-19T03:23:28.751Z,100660.31
2023-04-19T03:26:00.922Z,100656.72
2023-04-19T03:28:48.835Z,100645.44
2023-04-19T03:31:39.785Z,100648.34
2023-04-19T03:34:12.257Z,100640.91
2023-04-19T03:36:45.948Z,100638.19
2023-04-19T03:39:18.222Z,100637.41
2023-04-19T03:41:51.057Z,100634.25
2023-04-19T03:44:41.064Z,100634.16
2023-04-19T03:47:12.075Z,100628.50
2023-04-19T03:49:46.484Z,100635.00
2023-04-19T03:52:16.297Z,100629.97
2023-04-19T03:54:48.615Z,100622.00
2023-04-19T03:57:40.450Z,100629.97
2023-04-19T04:00:24.848Z,100632.16
2023-04-19T04:02:59.750Z,100630.53
2023-04-19T04:05:30.885Z,100638.97
2023-04-19T04:08:00.609Z,100638.91
2023-04-19T04:10:32.912Z,100643.00
2023-04-19T04:13:03.168Z,100644.16
2023-04-19T04:15:43.815Z,100639.13
2023-04-19T04:18:16.446Z,100641.56
2023-04-19T04:20:46.558Z,100641.38
2023-04-19T04:23:16.762Z,100646.34
2023-04-19T04:25:59.373Z,100642.91
2023-04-19T04:28:31.270Z,100641.63
2023-04-19T04:31:02.568Z,100649.13
2023-04-19T04:33:35.135Z,100642.47
2023-04-19T04:36:08.526Z,100635.44
2023-04-19T04:38:39.371Z,100639.28
2023-04-19T04:41:12.285Z,100642.88
2023-04-19T04:43:42.022Z,100642.03
2023-04-19T04:46:12.760Z,100645.19
2023-04-19T04:48:44.681Z,100634.31
2023-04-19T04:51:14.413Z,100639.44
2023-04-19T04:53:47.450Z,100637.34
2023-04-19T04:56:19.977Z,100641.16
2023-04-19T04:58:50.004Z,100633.72
2023-04-19T05:01:28.273Z,100646.00
2023-04-19T05:03:58.124Z,100634.13
2023-04-19T05:06:27.872Z,100638.63
2023-04-19T05:08:57.632Z,100629.50
2023-04-19T05:11:36.968Z,100641.72
2023-04-19T05:14:07.455Z,100638.75
2023-04-19T05:16:37.824Z,100643.47
2023-04-19T05:19:07.699Z,100637.59
2023-04-19T05:21:42.938Z,100641.66
2023-04-19T05:24:13.304Z,100636.19
2023-04-19T05:26:46.218Z,100640.50
2023-04-19T05:29:16.191Z,100634.69
2023-04-19T05:31:54.748Z,100632.16
2023-04-19T05:34:27.858Z,100643.94
2023-04-19T05:36:59.429Z,100634.97
2023-04-19T05:39:29.623Z,100640.09
2023-04-19T05:42:03.829Z,100637.78
2023-04-19T05:44:33.665Z,100634.97
2023-04-19T05:47:03.505Z,100629.91
2023-04-19T05:49:53.194Z,100626.28
2023-04-19T05:52:29.886Z,100631.66
2023-04-19T05:55:01.664Z,100620.47
2023-04-19T05:57:34.282Z,100616.94
2023-04-19T06:00:04.305Z,100623.59
2023-04-19T06:02:44.771Z,100612.41
2023-04-19T06:05:16.640Z,100619.53
2023-04-19T06:07:54.541Z,100624.72
2023-04-19T06:10:31.272Z,100616.66
2023-04-19T06:13:09.350Z,100625.47
2023-04-19T06:15:40.251Z,100625.22
2023-04-19T06:18:19.782Z,100628.91
2023-04-19T06:20:50.138Z,100631.31
2023-04-19T06:23:19.816Z,100629.88
2023-04-19T06:25:50.524Z,100621.88
2023-04-19T06:28:22.788Z,100623.00
2023-04-19T06:30:52.460Z,100619.09
2023-04-19T06:33:22.243Z,100638.78
2023-04-19T06:35:51.979Z,100624.31
2023-04-19T06:38:21.712Z,100626.13
2023-04-19T06:40:51.405Z,100629.16
2023-04-19T06:43:23.958Z,100625.00
2023-04-19T06:46:00.910Z,100624.78
2023-04-19T06:48:31.039Z,100622.72
2023-04-19T06:51:00.789Z,100615.56
2023-04-19T06:53:30.548Z,100622.75
2023-04-19T06:56:02.889Z,100615.34
2023-04-19T06:58:35.969Z,100607.13
2023-04-19T07:01:06.856Z,100608.53
2023-04-19T07:03:37.032Z,100609.94
2023-04-19T07:06:07.237Z,100605.88
2023-04-19T07:08:49.391Z,100599.91
2023-04-19T07:11:21.257Z,100598.03
2023-04-19T07:13:54.748Z,100591.66
2023-04-19T07:16:24.946Z,100604.34
2023-04-19T07:18:54.725Z,100604.34
2023-04-19T07:21:25.406Z,100605.94
2023-04-19T07:23:55.138Z,100596.34
2023-04-19T07:26:24.847Z,100593.97
2023-04-19T07:28:57.140Z,100589.34
2023-04-19T07:31:27.708Z,100587.09
2023-04-19T07:33:57.406Z,100583.59
2023-04-19T07:36:27.170Z,100583.69
2023-04-19T07:38:56.841Z,100580.56
2023-04-19T07:41:26.519Z,100576.72
2023-04-19T07:43:58.776Z,100577.03
2023-04-19T07:46:28.596Z,100582.00
2023-04-19T07:48:58.294Z,100580.19
2023-04-19T07:51:27.958Z,100580.22
2023-04-19T07:53:57.665Z,100571.47
2023-04-19T07:56:28.368Z,100578.28
2023-04-19T07:59:08.423Z,100564.38
2023-04-19T08:01:39.081Z,100561.88
2023-04-19T08:04:09.358Z,100555.88
2023-04-19T08:06:40.787Z,100559.88
2023-04-19T08:09:10.641Z,100563.09
2023-04-19T08:11:40.334Z,100556.56
2023-04-19T08:14:22.174Z,100547.81
2023-04-19T08:19:33.322Z,100550.72
2023-04-19T08:22:04.636Z,100548.88
2023-04-19T08:24:34.343Z,100545.09
2023-04-19T08:27:04.066Z,100548.41
2023-04-19T08:29:36.358Z,100535.44
2023-04-19T08:32:06.110Z,100540.00
2023-04-19T08:34:37.714Z,100541.34
2023-04-19T08:37:07.686Z,100539.50
2023-04-19T08:39:38.139Z,100539.75
2023-04-19T08:42:18.433Z,100533.34
2023-04-19T08:47:51.880Z,100526.09
2023-04-19T08:53:16.197Z,100516.78
2023-04-19T08:56:08.501Z,100507.06
2023-04-19T08:58:57.745Z,100506.78
2023-04-19T09:01:36.144Z,100504.63
2023-04-19T09:06:42.413Z,100488.25
2023-04-19T09:09:33.963Z,100496.59
2023-04-19T09:12:18.542Z,100484.47
2023-04-19T09:15:01.231Z,100483.00
2023-04-19T09:17:36.812Z,100473.97
2023-04-19T09:20:08.616Z,100479.81
2023-04-19T09:22:38.307Z,100481.06
2023-04-19T09:27:42.272Z,100474.88
2023-04-19T09:30:20.821Z,100465.78
2023-04-19T09:32:56.637Z,100459.41
2023-04-19T09:35:42.894Z,100460.63
2023-04-19T09:38:12.496Z,100460.72
2023-04-19T09:40:43.819Z,100466.38
2023-04-19T09:43:45.271Z,100456.13
2023-04-19T09:46:03.706Z,100444.03
2023-04-19T09:48:37.303Z,100448.03
2023-04-19T09:51:10.554Z,100443.31
2023-04-19T09:53:43.477Z,100447.63
2023-04-19T09:56:13.887Z,100426.41
2023-04-19T09:58:51.232Z,100431.63
2023-04-19T10:01:28.876Z,100436.72
2023-04-19T10:04:10.288Z,100428.81
2023-04-19T10:07:19.368Z,100430.69
2023-04-19T10:09:49.665Z,100429.31
2023-04-19T10:12:46.248Z,100413.53
2023-04-19T10:15:16.367Z,100407.97
2023-04-19T10:17:46.964Z,100397.84
2023-04-19T10:20:25.773Z,100411.69
2023-04-19T10:22:56.416Z,100407.13
2023-04-19T10:25:32.507Z,100394.16
2023-04-19T10:28:02.219Z,100389.19
2023-04-19T10:30:32.034Z,100410.44
2023-04-19T10:33:04.205Z,100397.16
2023-04-19T10:35:40.895Z,100385.97
2023-04-19T10:38:13.016Z,100400.69
2023-04-19T10:41:01.196Z,100392.09
2023-04-19T10:43:33.117Z,100378.94
2023-04-19T10:46:04.254Z,100371.16
2023-04-19T10:48:44.255Z,100383.13
2023-04-19T10:51:21.565Z,100372.25
2023-04-19T10:53:53.750Z,100378.78
2023-04-19T10:56:25.969Z,100374.56
2023-04-19T10:59:22.218Z,100363.72
2023-04-19T11:01:57.499Z,100361.06
2023-04-19T11:05:14.531Z,100355.78
2023-04-19T11:07:48.517Z,100359.94
2023-04-19T11:10:31.614Z,100339.06
2023-04-19T11:13:01.598Z,100307.75
2023-04-19T11:15:31.272Z,100330.69
2023-04-19T11:18:12.019Z,100323.75
2023-04-19T11:20:45.781Z,100305.22
2023-04-19T11:23:21.678Z,100309.03
2023-04-19T11:25:53.874Z,100308.66
2023-04-19T11:28:24.559Z,100304.44
2023-04-19T11:30:55.272Z,100304.13
2023-04-19T11:33:27.496Z,100306.03
2023-04-19T11:35:57.150Z,100294.94
2023-04-19T11:38:30.468Z,100284.53
2023-04-19T11:41:03.923Z,100279.28
2023-04-19T11:43:36.764Z,100286.75
2023-04-19T11:46:11.188Z,100285.56
2023-04-19T11:48:41.514Z,100273.44
2023-04-19T11:51:11.763Z,100266.69
2023-04-19T11:53:44.111Z,100276.50
2023-04-19T11:56:15.599Z,100285.84
2023-04-19T11:58:48.826Z,100273.75
2023-04-19T12:01:22.668Z,100278.66
2023-04-19T12:03:54.416Z,100275.41
2023-04-19T12:06:27.227Z,100282.53
2023-04-19T12:08:59.821Z,100274.59
2023-04-19T12:11:46.147Z,100264.44
2023-04-19T12:14:18.645Z,100262.88
2023-04-19T12:16:49.103Z,100264.59
2023-04-19T12:19:21.774Z,100267.19
2023-04-19T12:21:51.470Z,100273.47
2023-04-19T12:24:23.691Z,100284.28
2023-04-19T12:26:57.781Z,100270.69
2023-04-19T12:29:29.906Z,100264.38
2023-04-19T12:31:59.614Z,100257.03
2023-04-19T12:34:29.457Z,100257.88
2023-04-19T12:36:59.719Z,100251.38
2023-04-19T12:39:32.052Z,100246.06
2023-04-19T12:42:01.741Z,100240.28
2023-04-19T12:44:31.513Z,100238.69
2023-04-19T12:47:01.169Z,100224.31
2023-04-19T12:49:30.985Z,100230.25
2023-04-19T12:52:00.655Z,100221.56
2023-04-19T12:54:33.185Z,100227.28
2023-04-19T12:57:03.566Z,100250.59
2023-04-19T12:59:33.429Z,100207.88
2023-04-19T13:02:03.278Z,100208.03
2023-04-19T13:04:33.185Z,100219.78
2023-04-19T13:07:03.325Z,100212.84
2023-04-19T13:09:35.590Z,100212.88
2023-04-19T13:12:05.313Z,100203.03
2023-04-19T13:14:35.429Z,100208.22
2023-04-19T13:17:05.115Z,100202.44
2023-04-19T13:19:34.807Z,100200.38
2023-04-19T13:22:04.545Z,100206.03
2023-04-19T13:24:36.872Z,100196.53
2023-04-19T13:27:08.731Z,100205.53
2023-04-19T13:29:39.097Z,100194.81
2023-04-19T13:32:12.620Z,100202.03
2023-04-19T13:34:42.923Z,100182.22
2023-04-19T13:37:12.650Z,100187.72
2023-04-19T13:39:46.097Z,100186.47
2023-04-19T13:42:16.418Z,100178.22
2023-04-19T13:44:46.104Z,100196.09
2023-04-19T13:47:15.885Z,100178.16
2023-04-19T13:49:45.934Z,100174.50
2023-04-19T13:52:15.681Z,100171.66
2023-04-19T13:54:47.975Z,100179.63
2023-04-19T13:57:17.807Z,100161.88
2023-04-19T13:59:47.559Z,100148.00
2023-04-19T14:02:17.411Z,100161.31
2023-04-19T14:04:47.199Z,100161.94
2023-04-19T14:07:17.119Z,100150.03
2023-04-19T14:09:49.353Z,100188.44
2023-04-19T14:12:19.037Z,100157.47
2023-04-19T14:14:48.711Z,100160.19
2023-04-19T14:17:18.433Z,100149.50
2023-04-19T14:19:48.102Z,100156.72
2023-04-19T14:22:19.393Z,100145.94
2023-04-19T14:24:51.840Z,100138.94
2023-04-19T14:27:22.003Z,100151.22
2023-04-19T14:29:51.898Z,100138.19
2023-04-19T14:32:26.721Z,100124.81
2023-04-19T14:34:57.588Z,100128.25
2023-04-19T14:37:27.622Z,100140.22
2023-04-19T14:39:59.892Z,100123.59
2023-04-19T14:42:29.631Z,100127.97
2023-04-19T14:45:00.770Z,100138.09
2023-04-19T14:47:30.888Z,100121.94
2023-04-19T14:50:00.778Z,100128.13
2023-04-19T14:52:30.480Z,100109.44
2023-04-19T14:55:02.840Z,100125.28
2023-04-19T14:57:32.831Z,100115.00
2023-04-19T15:00:02.604Z,100120.16
2023-04-19T15:02:32.502Z,100107.69
2023-04-19T15:05:02.500Z,100119.69
2023-04-19T15:07:32.515Z,100094.09
2023-04-19T15:10:04.771Z,100103.78
2023-04-19T15:12:37.149Z,100099.81
2023-04-19T15:15:07.947Z,100104.22
2023-04-19T15:17:37.904Z,100102.31
2023-04-19T15:20:08.927Z,100099.56
2023-04-19T15:22:38.710Z,100096.00
2023-04-19T15:25:12.148Z,100103.13
2023-04-19T15:27:42.468Z,100090.75
2023-04-19T15:30:13.160Z,100091.47
2023-04-19T15:32:44.556Z,100098.06
2023-04-19T15:35:14.558Z,100101.44
2023-04-19T15:37:44.275Z,100095.19
2023-04-19T15:40:17.331Z,100088.66
2023-04-19T15:42:47.024Z,100085.63
2023-04-19T15:45:16.879Z,100073.47
2023-04-19T15:47:46.647Z,100080.53
2023-04-19T15:50:16.964Z,100092.53
2023-04-19T15:52:46.701Z,100088.81
2023-04-19T15:55:19.229Z,100095.09
2023-04-19T15:57:49.926Z,100089.06
2023-04-19T16:00:20.932Z,100098.34
2023-04-19T16:02:50.940Z,100086.31
2023-04-19T16:05:20.697Z,100098.78
2023-04-19T16:07:52.150Z,100086.81
2023-04-19T16:10:24.693Z,100082.22
2023-04-19T16:12:54.740Z,100092.31
2023-04-19T16:15:24.829Z,100077.84
2023-04-19T16:17:55.138Z,100070.78
2023-04-19T16:20:24.996Z,100071.03
2023-04-19T16:22:54.709Z,100070.66
2023-04-19T16:25:27.081Z,100076.84
2023-04-19T16:27:56.854Z,100076.72
2023-04-19T16:30:27.022Z,100065.44
2023-04-19T16:32:57.352Z,100077.69
2023-04-19T16:35:28.131Z,100070.75
2023-04-19T16:37:58.105Z,100074.88
2023-04-19T16:40:30.519Z,100066.59
2023-04-19T16:43:00.582Z,100080.88
2023-04-19T16:45:30.651Z,100090.00
2023-04-19T16:48:00.421Z,100066.59
2023-04-19T16:50:30.334Z,100070.09
2023-04-19T16:53:00.043Z,100063.78
2023-04-19T16:55:32.487Z,100056.88
2023-04-19T16:58:02.258Z,100076.69
2023-04-19T17:00:32.177Z,100074.38
2023-04-19T17:03:02.032Z,100061.59
2023-04-19T17:05:31.956Z,100066.25
2023-04-19T17:08:01.711Z,100056.47
2023-04-19T17:10:34.148Z,100065.81
2023-04-19T17:13:03.812Z,100058.59
2023-04-19T17:15:33.615Z,100068.25
2023-04-19T17:18:04.186Z,100070.13
2023-04-19T17:20:33.977Z,100070.88
2023-04-19T17:23:03.677Z,100067.56
2023-04-19T17:25:36.068Z,100080.69
2023-04-19T17:28:06.118Z,100094.00
2023-04-19T17:30:35.916Z,100081.63
2023-04-19T17:33:06.025Z,100086.88
2023-04-19T17:35:35.800Z,100095.09
2023-04-19T17:38:05.529Z,100094.03
2023-04-19T17:40:37.863Z,100103.88
2023-04-19T17:43:07.507Z,100114.34
2023-04-19T17:45:37.346Z,100110.31
2023-04-19T17:48:07.838Z,100151.06
2023-04-19T17:50:37.774Z,100140.16
2023-04-19T17:53:07.522Z,100140.13
2023-04-19T17:55:39.801Z,100132.97
2023-04-19T17:58:09.478Z,100132.13
2023-04-19T18:00:39.149Z,100128.41
2023-04-19T18:03:11.074Z,100120.16
2023-04-19T18:05:41.377Z,100123.34
2023-04-19T18:08:11.580Z,100108.50
2023-04-19T18:10:43.860Z,100101.91
2023-04-19T18:13:13.568Z,100103.19
2023-04-19T18:15:43.320Z,100102.56
2023-04-19T18:18:13.020Z,100101.81
2023-04-19T18:20:42.790Z,100099.81
2023-04-19T18:23:12.552Z,100106.13
2023-04-19T18:25:44.932Z,100117.94
2023-04-19T18:28:14.707Z,100096.75
2023-04-19T18:30:44.555Z,100095.72
2023-04-19T18:33:14.361Z,100106.53
2023-04-19T18:35:44.203Z,100093.34
2023-04-19T18:38:14.023Z,100087.84
2023-04-19T18:40:46.393Z,100094.38
2023-04-19T18:43:16.220Z,100098.53
2023-04-19T18:45:46.041Z,100091.03
2023-04-19T18:48:15.991Z,100093.13
2023-04-19T18:50:45.878Z,100101.97
2023-04-19T18:53:15.640Z,100090.63
2023-04-19T18:55:51.967Z,100095.00
2023-04-19T18:58:22.841Z,100103.88
2023-04-19T19:00:53.015Z,100097.97
2023-04-19T19:05:58.078Z,100094.16
2023-04-19T19:08:28.399Z,100092.03
2023-04-19T19:13:33.508Z,100094.44
2023-04-19T19:16:03.379Z,100095.28
2023-04-19T19:18:33.244Z,100098.19
2023-04-19T19:21:03.354Z,100085.50
2023-04-19T19:23:38.388Z,100095.06
2023-04-19T19:26:15.399Z,100090.97
2023-04-19T19:28:45.257Z,100092.78
2023-04-19T19:31:15.108Z,100088.31
2023-04-19T19:33:51.833Z,100096.41
2023-04-19T19:36:33.930Z,100089.22
2023-04-19T19:39:03.796Z,100091.81
2023-04-19T19:42:04.392Z,100091.91
2023-04-19T19:44:26.525Z,100099.63
2023-04-19T19:46:56.511Z,100098.03
2023-04-19T19:49:26.514Z,100107.00
2023-04-19T19:51:59.404Z,100104.59
2023-04-19T19:54:29.863Z,100107.84
2023-04-19T19:59:35.379Z,100104.72
2023-04-19T20:02:05.780Z,100116.75
2023-04-19T20:04:38.773Z,100113.44
2023-04-19T20:07:32.776Z,100117.16
2023-04-19T20:09:58.677Z,100111.34
2023-04-19T20:12:31.125Z,100105.16
2023-04-19T20:15:01.472Z,100109.91
2023-04-19T20:17:31.975Z,100111.88
2023-04-19T20:20:05.943Z,100113.53
2023-04-19T20:22:35.807Z,100103.06
2023-04-19T20:25:05.770Z,100106.88
2023-04-19T20:27:38.206Z,100102.47
2023-04-19T20:30:09.817Z,100107.69
2023-04-19T20:32:42.928Z,100097.69
2023-04-19T20:35:14.678Z,100090.81
2023-04-19T20:37:44.617Z,100112.28
2023-04-19T20:40:16.471Z,100131.03
2023-04-19T20:42:49.139Z,100114.56
2023-04-19T20:45:19.223Z,100110.78
2023-04-19T20:47:49.164Z,100110.81
2023-04-19T20:50:19.090Z,100111.03
2023-04-19T20:52:48.879Z,100103.53
2023-04-19T20:55:18.697Z,100104.75
2023-04-19T20:57:51.094Z,100101.34
2023-04-19T21:00:21.676Z,100094.28
2023-04-19T21:02:51.984Z,100089.25
2023-04-19T21:05:21.827Z,100088.88
2023-04-19T21:07:51.563Z,100091.81
2023-04-19T21:10:22.181Z,100083.03
2023-04-19T21:12:54.456Z,100078.47
2023-04-19T21:15:24.429Z,100079.91
2023-04-19T21:17:54.193Z,100077.19
2023-04-19T21:20:24.238Z,100072.56
2023-04-19T21:22:53.897Z,100068.84
2023-04-19T21:25:23.758Z,100068.03
2023-04-19T21:27:56.089Z,100064.72
2023-04-19T21:30:25.987Z,100053.69
2023-04-19T21:32:55.988Z,100056.38
2023-04-19T21:35:26.219Z,100050.97
2023-04-19T21:37:55.874Z,100059.53
2023-04-19T21:40:25.908Z,100053.50
2023-04-19T21:42:58.201Z,100060.34
2023-04-19T21:45:28.273Z,100050.97
2023-04-19T21:47:58.074Z,100045.94
2023-04-19T21:50:27.815Z,100052.19
2023-04-19T21:52:57.543Z,100045.75
2023-04-19T21:55:27.516Z,100041.75
2023-04-19T21:57:59.859Z,100037.19
2023-04-19T22:00:29.616Z,100040.09
2023-04-19T22:02:59.441Z,100034.50
2023-04-19T22:05:29.188Z,100029.06
2023-04-19T22:07:59.531Z,100033.44
2023-04-19T22:10:29.422Z,100031.78
2023-04-19T22:13:02.569Z,100023.63
2023-04-19T22:15:32.484Z,100022.38
2023-04-19T22:18:03.053Z,100020.09
2023-04-19T22:20:33.945Z,100024.69
2023-04-19T22:23:03.694Z,100018.81
2023-04-19T22:25:33.445Z,100013.44
2023-04-19T22:28:07.573Z,100018.22
2023-04-19T22:30:37.554Z,100010.94
2023-04-19T22:33:07.262Z,100018.81
2023-04-19T22:35:37.293Z,100010.50
2023-04-19T22:38:07.659Z,100019.72
2023-04-19T22:40:37.423Z,100016.38
2023-04-19T22:43:09.724Z,100022.00
2023-04-19T22:45:39.421Z,100018.47
2023-04-19T22:48:09.216Z,100015.13
2023-04-19T22:50:39.343Z,100016.16
2023-04-19T22:53:09.870Z,100020.97
2023-04-19T22:55:39.634Z,100024.69
2023-04-19T22:58:12.915Z,100017.41
2023-04-19T23:00:42.606Z,100019.91
2023-04-19T23:03:12.383Z,100009.50
2023-04-19T23:05:42.200Z,100008.84
2023-04-19T23:08:13.074Z,100015.53
2023-04-19T23:10:45.442Z,100006.34
2023-04-19T23:13:17.772Z,100013.63
2023-04-19T23:15:47.535Z,100017.81
2023-04-19T23:18:17.884Z,100018.44
2023-04-19T23:20:47.586Z,100013.03
2023-04-19T23:23:17.330Z,100010.53
2023-04-19T23:25:47.072Z,100012.63
2023-04-19T23:28:19.509Z,100013.03
2023-04-19T23:30:49.179Z,100006.38
2023-04-19T23:33:18.881Z,100015.97
2023-04-19T23:35:48.655Z,100014.06
2023-04-19T23:38:19.002Z,100014.28
2023-04-19T23:40:48.773Z,100004.28
2023-04-19T23:43:21.256Z,100010.31
2023-04-19T23:45:51.106Z,100013.44
2023-04-19T23:48:21.002Z,100005.13
2023-04-19T23:50:50.690Z,100010.50
2023-04-19T23:53:20.486Z,100005.50
2023-04-19T23:55:50.207Z,100013.03
2023-04-19T23:58:22.515Z,100002.19
